Time;durP1;ratioP1;P1;durP2;ratioP2;P2;SDS_P1;SDS_P2;PMS_P1;PMS_P2;Temp;Humidity;BMP_temperature;BMP_pressure;BME280_temperature;BME280_humidity;BME280_pressure;Samples;Min_cycle;Max_cycle;Signal;HPM_P1;HPM_P2
2022/07/29 00:02:25;;;;;;;4.55;3.33;;;18.00;99.90;;;;;;5067491;28;20111;-63
2022/07/29 00:04:52;;;;;;;5.50;3.47;;;18.00;99.90;;;;;;5072042;28;20059;-62
2022/07/29 00:07:19;;;;;;;7.20;3.47;;;17.90;99.90;;;;;;5073998;28;20055;-63
2022/07/29 00:09:46;;;;;;;7.07;3.50;;;18.00;99.90;;;;;;5073473;28;20055;-62
2022/07/29 00:12:19;;;;;;;5.50;3.00;;;17.90;99.90;;;;;;5065231;28;20037;-63
2022/07/29 00:14:55;;;;;;;5.07;3.30;;;17.90;99.90;;;;;;5073943;28;20398;-62
2022/07/29 00:17:25;;;;;;;4.65;3.13;;;17.90;99.90;;;;;;5073629;28;20403;-62
2022/07/29 00:19:52;;;;;;;3.67;3.08;;;17.90;99.90;;;;;;5064845;28;20428;-62
2022/07/29 00:22:19;;;;;;;4.20;2.55;;;17.90;99.90;;;;;;5072322;28;20421;-63
2022/07/29 00:24:49;;;;;;;4.40;2.83;;;17.80;99.90;;;;;;5073528;28;20446;-62
2022/07/29 00:27:17;;;;;;;3.85;3.10;;;17.90;99.90;;;;;;5068215;28;20044;-62
2022/07/29 00:29:44;;;;;;;5.45;2.70;;;17.90;99.90;;;;;;5070337;28;20044;-62
2022/07/29 00:32:10;;;;;;;3.83;2.53;;;17.90;99.90;;;;;;5073007;28;20037;-62
2022/07/29 00:37:22;;;;;;;5.35;2.90;;;17.90;99.90;;;;;;5066931;28;20397;-63
2022/07/29 00:39:50;;;;;;;3.92;2.72;;;17.90;99.90;;;;;;5073176;28;20049;-62
2022/07/29 00:42:17;;;;;;;6.20;2.50;;;17.80;99.90;;;;;;5072757;28;20059;-63
2022/07/29 00:44:43;;;;;;;3.05;2.20;;;17.90;99.90;;;;;;5064586;28;20056;-62
2022/07/29 00:47:11;;;;;;;3.90;3.10;;;17.90;99.90;;;;;;5073182;28;20040;-62
2022/07/29 00:49:39;;;;;;;4.30;2.58;;;17.80;99.90;;;;;;5072894;28;20128;-63
2022/07/29 00:52:07;;;;;;;3.58;2.65;;;17.80;99.90;;;;;;5068741;28;20037;-62
2022/07/29 00:54:34;;;;;;;3.00;2.20;;;17.80;99.90;;;;;;5068524;28;20044;-62
2022/07/29 00:57:11;;;;;;;3.38;2.20;;;17.80;99.90;;;;;;5073044;28;20504;-62
2022/07/29 00:59:38;;;;;;;5.38;2.60;;;17.90;99.90;;;;;;5072783;28;20048;-62
2022/07/29 01:02:05;;;;;;;3.92;2.22;;;17.90;99.90;;;;;;5068793;28;20037;-62
2022/07/29 01:04:32;;;;;;;3.55;2.35;;;17.90;99.90;;;;;;5068064;28;20044;-62
2022/07/29 01:07:02;;;;;;;3.03;2.13;;;18.00;99.90;;;;;;5072772;28;20067;-62
2022/07/29 01:09:31;;;;;;;3.47;2.33;;;18.00;99.90;;;;;;5072197;28;20044;-62
2022/07/29 01:12:19;;;;;;;2.72;2.20;;;18.00;99.90;;;;;;5052284;28;20049;-63
2022/07/29 01:14:48;;;;;;;2.83;2.17;;;18.00;99.90;;;;;;5052552;28;20041;-62
2022/07/29 01:17:21;;;;;;;2.78;2.25;;;18.00;99.90;;;;;;5053256;28;20036;-62
2022/07/29 01:19:54;;;;;;;3.20;1.90;;;18.00;99.90;;;;;;5061907;28;20128;-62
2022/07/29 01:22:21;;;;;;;2.80;2.38;;;18.00;99.90;;;;;;5072379;28;20044;-62
2022/07/29 01:25:02;;;;;;;4.25;2.42;;;18.00;99.90;;;;;;5072439;28;20040;-62
2022/07/29 01:27:53;;;;;;;3.15;2.25;;;18.00;99.90;;;;;;5071976;28;20040;-63
2022/07/29 01:30:24;;;;;;;2.20;2.00;;;17.90;99.90;;;;;;5065743;28;20045;-62
2022/07/29 01:32:56;;;;;;;4.38;2.80;;;17.90;99.90;;;;;;5072272;28;20040;-63
2022/07/29 01:35:38;;;;;;;6.35;2.20;;;17.90;99.90;;;;;;5067484;28;20037;-62
2022/07/29 01:38:17;;;;;;;3.33;2.60;;;17.80;99.90;;;;;;5063669;28;20066;-62
2022/07/29 01:40:52;;;;;;;3.22;2.50;;;17.80;99.90;;;;;;5071550;28;20484;-62
2022/07/29 01:43:23;;;;;;;3.60;2.33;;;17.80;99.90;;;;;;5071852;28;20036;-62
2022/07/29 01:46:00;;;;;;;5.03;2.17;;;17.80;99.90;;;;;;5063626;28;20561;-62
2022/07/29 01:48:45;;;;;;;2.40;1.98;;;17.80;99.90;;;;;;5072040;28;20054;-63
2022/07/29 01:51:31;;;;;;;2.88;2.22;;;17.70;99.90;;;;;;5070944;28;20059;-62
2022/07/29 01:54:10;;;;;;;5.97;2.70;;;17.70;99.90;;;;;;5067924;28;20435;-63
2022/07/29 01:56:38;;;;;;;3.22;2.30;;;17.70;99.90;;;;;;5067776;28;20055;-62
2022/07/29 01:59:08;;;;;;;4.28;2.65;;;17.70;99.90;;;;;;5071876;28;20051;-62
2022/07/29 02:01:37;;;;;;;3.50;2.40;;;17.70;99.90;;;;;;5071140;28;20044;-62
2022/07/29 02:04:06;;;;;;;3.17;2.08;;;17.70;99.90;;;;;;5063285;28;20041;-63
2022/07/29 02:06:36;;;;;;;3.67;2.10;;;17.70;99.90;;;;;;5071782;28;20060;-62
2022/07/29 02:09:04;;;;;;;7.40;2.22;;;17.60;99.90;;;;;;5071597;28;20043;-62
2022/07/29 02:11:37;;;;;;;3.22;2.47;;;17.60;99.90;;;;;;5061783;28;20123;-62
2022/07/29 02:14:06;;;;;;;3.25;2.38;;;17.60;99.90;;;;;;5071380;28;20044;-63
2022/07/29 02:16:36;;;;;;;2.72;2.05;;;17.60;99.90;;;;;;5071477;28;20053;-64
2022/07/29 02:19:05;;;;;;;2.65;2.13;;;17.60;99.90;;;;;;5071338;28;20524;-62
2022/07/29 02:21:33;;;;;;;3.83;2.33;;;17.50;99.90;;;;;;5063071;28;20037;-62
2022/07/29 02:24:02;;;;;;;5.03;3.70;;;17.50;99.90;;;;;;5071567;28;20063;-63
2022/07/29 02:26:32;;;;;;;2.80;2.50;;;17.40;99.90;;;;;;5071222;28;20036;-63
2022/07/29 02:28:59;;;;;;;3.58;2.30;;;17.30;99.90;;;;;;5062092;28;20056;-63
2022/07/29 02:31:33;;;;;;;4.30;2.35;;;17.30;99.90;;;;;;5070966;28;20048;-62
2022/07/29 02:34:04;;;;;;;4.20;2.50;;;17.30;99.90;;;;;;5071386;28;20072;-62
2022/07/29 02:36:32;;;;;;;4.10;2.40;;;17.40;99.90;;;;;;5060887;28;20508;-62
2022/07/29 02:39:01;;;;;;;3.70;2.30;;;17.40;99.90;;;;;;5070490;28;20049;-62
2022/07/29 02:41:39;;;;;;;2.92;2.47;;;17.40;99.90;;;;;;5070969;28;20409;-62
2022/07/29 02:44:12;;;;;;;3.60;2.70;;;17.40;99.90;;;;;;5067505;28;20405;-62
2022/07/29 02:47:12;;;;;;;3.42;2.65;;;17.30;99.90;;;;;;5067669;28;20045;-62
2022/07/29 02:49:48;;;;;;;;;;;17.30;99.90;;;;;;5071740;28;20040;-62
2022/07/29 02:52:36;;;;;;;4.07;2.30;;;17.30;99.90;;;;;;5065617;28;19924;-62
2022/07/29 02:55:18;;;;;;;5.60;2.50;;;17.30;99.90;;;;;;5070925;28;20101;-62
2022/07/29 02:57:51;;;;;;;3.50;2.38;;;17.30;99.90;;;;;;5071218;28;20082;-62
2022/07/29 03:00:27;;;;;;;3.72;2.28;;;17.30;99.90;;;;;;5064966;28;20072;-63
2022/07/29 03:02:56;;;;;;;3.92;2.75;;;17.30;99.90;;;;;;5073412;28;20044;-62
2022/07/29 03:05:23;;;;;;;6.45;2.30;;;17.30;99.90;;;;;;5075074;28;20041;-62
2022/07/29 03:07:56;;;;;;;3.67;2.15;;;17.30;99.90;;;;;;5074733;28;20507;-62
2022/07/29 03:10:26;;;;;;;3.78;2.25;;;17.30;99.90;;;;;;5068406;28;20033;-62
2022/07/29 03:12:54;;;;;;;5.10;2.38;;;17.30;99.90;;;;;;5073065;28;20040;-62
2022/07/29 03:15:22;;;;;;;2.17;1.92;;;17.20;99.90;;;;;;5074924;28;20036;-62
2022/07/29 03:17:52;;;;;;;3.47;2.70;;;17.20;99.90;;;;;;5074450;28;20059;-62
2022/07/29 03:20:20;;;;;;;5.57;2.45;;;17.20;99.90;;;;;;5068943;28;20037;-62
2022/07/29 03:22:47;;;;;;;4.32;2.30;;;17.20;99.90;;;;;;5072124;28;20044;-62
2022/07/29 03:25:15;;;;;;;2.92;2.25;;;17.20;99.90;;;;;;5074689;28;20048;-62
2022/07/29 03:27:43;;;;;;;4.15;2.67;;;17.10;99.90;;;;;;5066859;28;20064;-63
2022/07/29 03:30:11;;;;;;;5.00;2.80;;;17.10;99.90;;;;;;5065774;28;20159;-62
2022/07/29 03:32:47;;;;;;;4.22;2.95;;;17.10;99.90;;;;;;5074569;28;20045;-62
2022/07/29 03:35:16;;;;;;;;;;;17.10;99.90;;;;;;5074874;28;20459;-62
2022/07/29 03:37:44;;;;;;;5.13;3.15;;;17.00;99.90;;;;;;5073792;28;19924;-63
2022/07/29 03:40:24;;;;;;;6.10;2.88;;;17.10;99.90;;;;;;5066437;28;20048;-62
2022/07/29 03:42:53;;;;;;;3.45;2.45;;;17.00;99.90;;;;;;5073758;28;20422;-62
2022/07/29 03:45:21;;;;;;;4.80;2.85;;;17.10;99.90;;;;;;5074267;28;20094;-62
2022/07/29 03:47:57;;;;;;;5.35;3.15;;;17.10;99.90;;;;;;5062861;28;20055;-63
2022/07/29 03:50:29;;;;;;;8.60;3.20;;;17.10;99.90;;;;;;5053911;28;20041;-62
2022/07/29 03:52:57;;;;;;;7.15;2.60;;;17.10;99.90;;;;;;5068958;28;20040;-62
2022/07/29 03:55:25;;;;;;;4.30;2.80;;;17.20;99.90;;;;;;5073002;28;20724;-62
2022/07/29 03:57:52;;;;;;;4.07;2.67;;;17.20;99.90;;;;;;5065380;28;20045;-62
2022/07/29 04:00:19;;;;;;;;;;;17.20;99.90;;;;;;5059136;28;20052;-63
2022/07/29 04:02:48;;;;;;;4.38;2.50;;;17.10;99.90;;;;;;5055336;28;19920;-63
2022/07/29 04:05:16;;;;;;;5.05;2.58;;;17.20;99.90;;;;;;5068996;28;20504;-63
2022/07/29 04:07:47;;;;;;;3.97;2.78;;;17.10;99.90;;;;;;5070740;28;20052;-62
2022/07/29 04:10:17;;;;;;;2.85;2.47;;;17.20;99.90;;;;;;5053305;28;20052;-62
2022/07/29 04:12:58;;;;;;;3.10;2.58;;;17.20;99.90;;;;;;5063364;28;20043;-62
2022/07/29 04:15:25;;;;;;;7.35;2.50;;;17.30;99.90;;;;;;5067652;28;20040;-62
2022/07/29 04:17:56;;;;;;;4.00;2.85;;;17.30;99.90;;;;;;5068679;28;20052;-62
2022/07/29 04:20:23;;;;;;;4.03;2.25;;;17.30;99.90;;;;;;5066489;28;20493;-63
2022/07/29 04:22:50;;;;;;;5.53;3.00;;;17.40;99.90;;;;;;5069129;28;20036;-64
2022/07/29 04:25:17;;;;;;;6.28;2.85;;;17.40;99.90;;;;;;5071416;28;20049;-63
2022/07/29 04:28:04;;;;;;;6.63;3.60;;;17.30;99.90;;;;;;5064416;28;20052;-63
2022/07/29 04:30:32;;;;;;;6.65;3.42;;;17.30;99.90;;;;;;5062378;28;20032;-62
2022/07/29 04:33:00;;;;;;;8.65;3.47;;;17.20;99.90;;;;;;5062491;28;20040;-63
2022/07/29 04:35:28;;;;;;;7.78;3.00;;;17.10;99.90;;;;;;5064415;28;20493;-63
2022/07/29 04:37:55;;;;;;;4.70;3.05;;;17.10;99.90;;;;;;5061225;28;20041;-63
2022/07/29 04:40:22;;;;;;;4.55;3.10;;;17.20;99.90;;;;;;5062656;28;20037;-63
2022/07/29 04:42:48;;;;;;;7.40;3.20;;;17.30;99.90;;;;;;5080220;22;20040;-59
2022/07/29 04:45:15;;;;;;;7.10;3.13;;;17.20;99.90;;;;;;5065914;28;20036;-59
2022/07/29 04:47:48;;;;;;;6.20;3.33;;;17.20;99.90;;;;;;5068618;28;20052;-59
2022/07/29 04:50:15;;;;;;;3.83;2.83;;;17.20;99.90;;;;;;5072357;28;20040;-59
2022/07/29 04:52:41;;;;;;;5.10;3.25;;;17.20;99.90;;;;;;5060247;28;20033;-59
2022/07/29 04:55:09;;;;;;;7.13;3.00;;;17.10;99.90;;;;;;5054715;28;20056;-61
2022/07/29 04:57:36;;;;;;;6.03;3.10;;;17.10;99.90;;;;;;5052607;28;20037;-61
2022/07/29 05:00:04;;;;;;;3.70;2.75;;;17.10;99.90;;;;;;5059928;28;20059;-61
2022/07/29 05:02:31;;;;;;;2.78;2.40;;;17.10;99.90;;;;;;5057384;28;20049;-61
2022/07/29 05:04:58;;;;;;;5.18;3.22;;;17.20;99.90;;;;;;5052869;28;20421;-61
2022/07/29 05:07:25;;;;;;;4.38;3.03;;;17.20;99.90;;;;;;5058190;28;20040;-60
2022/07/29 05:09:52;;;;;;;3.92;3.00;;;17.20;99.90;;;;;;5063838;28;20148;-60
2022/07/29 05:12:19;;;;;;;4.40;2.90;;;17.30;99.90;;;;;;5072312;28;20086;-60
2022/07/29 05:14:46;;;;;;;3.83;2.70;;;17.30;99.90;;;;;;5064393;28;20045;-61
2022/07/29 05:17:12;;;;;;;4.93;2.80;;;17.40;99.90;;;;;;5063915;28;20041;-61
2022/07/29 05:19:39;;;;;;;4.78;2.35;;;17.60;99.90;;;;;;5052566;28;20072;-61
2022/07/29 05:22:06;;;;;;;3.80;2.50;;;17.60;99.90;;;;;;5052405;28;20090;-61
2022/07/29 05:24:33;;;;;;;3.40;2.47;;;17.60;99.90;;;;;;5046915;28;20037;-61
2022/07/29 05:27:00;;;;;;;4.38;2.80;;;17.60;99.90;;;;;;5062452;28;20036;-61
2022/07/29 05:29:26;;;;;;;4.82;2.50;;;17.70;99.90;;;;;;5072266;28;20055;-61
2022/07/29 05:32:10;;;;;;;5.45;3.25;;;17.70;99.90;;;;;;5067438;28;20041;-61
2022/07/29 05:34:37;;;;;;;7.65;3.78;;;17.70;99.90;;;;;;5059227;28;20052;-61
2022/07/29 05:37:19;;;;;;;5.45;2.70;;;17.80;99.90;;;;;;5031242;28;20045;-61
2022/07/29 05:39:46;;;;;;;4.38;2.55;;;17.90;99.90;;;;;;5038479;28;20037;-61
2022/07/29 05:42:16;;;;;;;2.97;2.38;;;17.90;99.90;;;;;;5053145;28;20041;-60
2022/07/29 05:44:43;;;;;;;3.80;2.80;;;18.10;99.90;;;;;;5068921;28;20055;-60
2022/07/29 05:47:09;;;;;;;4.15;2.47;;;18.10;99.90;;;;;;5071948;28;20420;-61
2022/07/29 05:49:36;;;;;;;2.95;2.33;;;18.10;99.90;;;;;;5067388;28;20090;-61
2022/07/29 05:52:03;;;;;;;4.05;2.85;;;18.10;99.90;;;;;;5061741;28;20567;-61
2022/07/29 05:54:30;;;;;;;3.17;2.15;;;18.10;99.90;;;;;;5071834;28;20055;-61
2022/07/29 05:56:57;;;;;;;5.75;2.97;;;18.20;99.90;;;;;;5071932;28;20048;-61
2022/07/29 05:59:24;;;;;;;6.75;2.53;;;18.20;99.90;;;;;;5060905;28;20033;-61
2022/07/29 06:01:56;;;;;;;3.45;2.60;;;18.20;99.90;;;;;;5070119;28;20044;-61
2022/07/29 06:04:24;;;;;;;4.82;2.28;;;18.30;99.90;;;;;;5071679;28;20041;-61
2022/07/29 06:06:50;;;;;;;5.60;2.58;;;18.30;99.90;;;;;;5063676;28;20137;-61
2022/07/29 06:09:17;;;;;;;3.33;2.50;;;18.30;99.90;;;;;;5063353;28;20067;-61
2022/07/29 06:11:44;;;;;;;3.20;2.60;;;18.30;99.90;;;;;;5071197;28;20409;-60
2022/07/29 06:14:11;;;;;;;3.78;2.28;;;18.40;99.90;;;;;;5069897;28;20036;-60
2022/07/29 06:16:38;;;;;;;6.82;2.72;;;18.50;99.90;;;;;;5063188;28;20083;-61
2022/07/29 06:19:04;;;;;;;5.72;2.53;;;18.40;99.90;;;;;;5071587;28;20424;-61
2022/07/29 06:21:31;;;;;;;3.25;2.20;;;18.50;99.90;;;;;;5071149;28;20048;-61
2022/07/29 06:23:58;;;;;;;3.65;2.47;;;18.70;99.90;;;;;;5056555;28;20052;-60
2022/07/29 06:26:26;;;;;;;3.53;2.20;;;18.80;99.90;;;;;;5065999;28;20040;-61
2022/07/29 06:28:57;;;;;;;3.88;2.33;;;19.00;99.90;;;;;;5071577;28;20045;-60
2022/07/29 06:31:24;;;;;;;2.83;2.20;;;19.30;99.90;;;;;;5063251;28;20044;-61
2022/07/29 06:33:51;;;;;;;2.85;2.40;;;19.30;99.90;;;;;;5062959;28;20040;-60
2022/07/29 06:36:20;;;;;;;3.67;2.03;;;19.40;99.90;;;;;;5070922;28;20041;-60
2022/07/29 06:38:49;;;;;;;4.68;2.40;;;19.60;99.90;;;;;;5071418;28;20601;-61
2022/07/29 06:41:17;;;;;;;5.55;2.22;;;19.80;99.90;;;;;;5063162;28;20041;-61
2022/07/29 06:43:45;;;;;;;2.28;1.80;;;19.80;99.90;;;;;;5062958;28;20068;-61
2022/07/29 06:46:20;;;;;;;9.13;2.67;;;19.90;99.90;;;;;;5071444;28;20041;-60
2022/07/29 06:48:47;;;;;;;3.17;2.08;;;19.80;99.90;;;;;;5065441;28;20041;-61
2022/07/29 06:51:16;;;;;;;5.90;2.35;;;19.50;99.90;;;;;;5062411;28;20120;-61
2022/07/29 06:53:50;;;;;;;2.67;1.90;;;19.30;99.90;;;;;;5071240;28;20489;-61
2022/07/29 06:56:32;;;;;;;3.63;2.55;;;19.20;99.90;;;;;;5071256;28;20040;-60
2022/07/29 06:59:07;;;;;;;6.70;2.38;;;19.10;99.90;;;;;;5062327;28;20139;-61
2022/07/29 07:01:36;;;;;;;5.03;2.20;;;19.00;99.90;;;;;;5066404;28;20408;-61
2022/07/29 07:04:03;;;;;;;3.67;2.00;;;18.90;99.90;;;;;;5071163;28;20513;-61
2022/07/29 07:06:30;;;;;;;4.25;2.33;;;18.90;99.90;;;;;;5066138;28;20040;-60
2022/07/29 07:08:57;;;;;;;3.80;2.25;;;18.90;99.90;;;;;;5062614;28;20049;-61
2022/07/29 07:11:24;;;;;;;2.47;2.28;;;19.10;99.90;;;;;;5070650;28;20044;-60
2022/07/29 07:13:50;;;;;;;2.53;1.98;;;19.20;99.90;;;;;;5069068;28;20045;-61
2022/07/29 07:16:17;;;;;;;4.28;2.10;;;19.50;99.90;;;;;;5062637;28;20044;-61
2022/07/29 07:18:45;;;;;;;3.50;2.20;;;19.80;99.90;;;;;;5071042;28;20060;-61
2022/07/29 07:21:12;;;;;;;3.67;2.20;;;20.00;99.90;;;;;;5070477;28;20539;-60
2022/07/29 07:23:45;;;;;;;3.22;2.13;;;20.30;99.90;;;;;;5059658;28;20075;-60
2022/07/29 07:26:12;;;;;;;3.13;2.08;;;20.50;99.90;;;;;;5070990;28;20043;-61
2022/07/29 07:28:39;;;;;;;4.10;2.00;;;20.60;99.90;;;;;;5069760;28;20041;-60
2022/07/29 07:31:06;;;;;;;2.17;1.75;;;20.80;99.90;;;;;;5064946;28;20080;-60
2022/07/29 07:33:32;;;;;;;2.47;1.95;;;21.00;99.90;;;;;;5062299;28;20033;-61
2022/07/29 07:35:59;;;;;;;2.85;2.17;;;21.10;99.90;;;;;;5070784;28;20438;-60
2022/07/29 07:38:26;;;;;;;6.10;1.85;;;21.10;99.90;;;;;;5063583;28;20508;-60
2022/07/29 07:40:53;;;;;;;5.50;2.13;;;21.20;99.90;;;;;;5060248;28;20512;-60
2022/07/29 07:43:19;;;;;;;2.70;2.00;;;21.30;99.90;;;;;;5070616;28;20143;-60
2022/07/29 07:45:46;;;;;;;2.65;2.30;;;21.10;99.90;;;;;;5070759;28;20052;-60
2022/07/29 07:48:13;;;;;;;6.93;2.25;;;21.10;99.90;;;;;;5064138;28;20101;-60
2022/07/29 07:50:40;;;;;;;2.83;2.53;;;21.10;99.90;;;;;;5065455;28;20048;-60
2022/07/29 07:53:06;;;;;;;3.50;2.17;;;21.20;99.90;;;;;;5074119;28;20622;-60
2022/07/29 07:55:33;;;;;;;2.80;2.25;;;21.50;99.90;;;;;;5070896;28;20036;-60
2022/07/29 07:58:20;;;;;;;3.08;2.20;;;21.60;99.90;;;;;;5060682;28;20044;-60
2022/07/29 08:00:47;;;;;;;2.63;2.08;;;21.70;99.90;;;;;;5073636;28;20044;-60
2022/07/29 08:03:14;;;;;;;2.67;2.10;;;21.70;99.90;;;;;;5070464;28;20775;-60
2022/07/29 08:05:43;;;;;;;4.35;2.20;;;21.60;99.90;;;;;;5065503;28;20086;-60
2022/07/29 08:08:10;;;;;;;4.70;1.85;;;21.40;99.90;;;;;;5073949;28;20056;-60
2022/07/29 08:10:51;;;;;;;4.63;2.03;;;21.60;99.90;;;;;;5073580;28;20067;-60
2022/07/29 08:13:20;;;;;;;2.70;1.90;;;21.70;99.90;;;;;;5061837;28;20494;-60
2022/07/29 08:15:56;;;;;;;2.28;1.70;;;21.90;99.90;;;;;;5071221;28;20048;-60
2022/07/29 08:18:24;;;;;;;3.28;1.83;;;22.10;99.90;;;;;;5073764;28;20044;-60
2022/07/29 08:20:51;;;;;;;2.25;1.98;;;22.20;99.90;;;;;;5066522;28;20047;-60
2022/07/29 08:23:18;;;;;;;3.20;1.92;;;22.40;99.90;;;;;;5067114;28;20051;-60
2022/07/29 08:25:45;;;;;;;2.58;1.98;;;22.60;99.90;;;;;;5073632;28;20052;-60
2022/07/29 08:28:16;;;;;;;2.33;2.03;;;22.50;99.90;;;;;;5069798;28;20049;-60
2022/07/29 08:30:43;;;;;;;2.33;1.92;;;22.50;99.90;;;;;;5058794;28;20037;-60
2022/07/29 08:33:10;;;;;;;1.98;1.88;;;22.50;99.90;;;;;;5073325;28;20053;-60
2022/07/29 08:35:39;;;;;;;4.03;2.10;;;22.50;99.90;;;;;;5073467;28;20098;-60
2022/07/29 08:38:05;;;;;;;3.97;1.90;;;22.70;99.90;;;;;;5068589;28;20032;-60
2022/07/29 08:40:32;;;;;;;2.33;1.90;;;22.80;99.90;;;;;;5064376;28;20040;-61
2022/07/29 08:43:07;;;;;;;4.85;1.98;;;22.90;99.90;;;;;;5073152;28;20063;-60
2022/07/29 08:45:43;;;;;;;6.80;2.45;;;23.00;99.90;;;;;;5073308;28;20045;-60
2022/07/29 08:48:15;;;;;;;2.00;1.67;;;23.20;99.90;;;;;;5060848;28;20490;-60
2022/07/29 08:50:44;;;;;;;2.50;2.10;;;23.40;99.90;;;;;;5069483;28;20409;-60
2022/07/29 08:53:15;;;;;;;3.45;2.08;;;23.50;99.90;;;;;;5071516;28;20417;-60
2022/07/29 08:55:44;;;;;;;3.80;2.17;;;23.70;99.90;;;;;;5061592;28;20437;-61
2022/07/29 08:58:12;;;;;;;2.15;1.95;;;23.80;99.90;;;;;;5072854;28;20043;-60
2022/07/29 09:00:45;;;;;;;2.40;1.73;;;24.10;99.90;;;;;;5072560;28;20481;-60
2022/07/29 09:03:20;;;;;;;3.10;1.92;;;24.30;99.90;;;;;;5068861;28;20102;-60
2022/07/29 09:05:47;;;;;;;2.10;1.60;;;24.40;99.90;;;;;;5064740;28;20408;-60
2022/07/29 09:08:16;;;;;;;2.13;1.50;;;24.50;99.90;;;;;;5072777;28;20044;-60
2022/07/29 09:10:44;;;;;;;2.97;1.63;;;24.30;99.90;;;;;;5072388;28;20040;-60
2022/07/29 09:13:11;;;;;;;2.47;1.70;;;24.30;99.90;;;;;;5061585;28;20065;-60
2022/07/29 09:15:37;;;;;;;2.40;2.20;;;24.60;99.90;;;;;;5067478;28;20049;-60
2022/07/29 09:18:04;;;;;;;4.57;1.80;;;24.70;99.90;;;;;;5072431;28;20059;-60
2022/07/29 09:23:16;;;;;;;2.50;2.13;;;24.60;99.90;;;;;;5064160;28;20044;-60
2022/07/29 09:25:50;;;;;;;3.58;2.08;;;24.40;99.90;;;;;;5072490;28;20459;-60
2022/07/29 09:28:17;;;;;;;;;;;24.30;99.90;;;;;;5069900;28;20048;-61
2022/07/29 09:30:55;;;;;;;3.40;2.20;;;24.60;99.90;;;;;;5060441;28;19924;-61
2022/07/29 09:33:23;;;;;;;5.25;2.10;;;24.90;99.90;;;;;;5072275;28;20037;-61
2022/07/29 09:36:04;;;;;;;2.20;1.88;;;25.00;99.90;;;;;;5072139;28;20049;-60
2022/07/29 09:38:32;;;;;;;3.08;1.92;;;25.20;99.90;;;;;;5061137;28;20044;-61
2022/07/29 09:41:02;;;;;;;2.83;2.03;;;25.30;99.90;;;;;;5069303;28;20044;-61
2022/07/29 09:43:33;;;;;;;2.50;2.10;;;25.30;99.90;;;;;;5072332;28;20426;-61
2022/07/29 09:46:13;;;;;;;1.92;1.80;;;25.50;99.90;;;;;;5063138;28;20053;-61
2022/07/29 09:48:40;;;;;;;2.08;1.80;;;25.70;99.90;;;;;;5063576;28;20056;-60
2022/07/29 09:51:17;;;;;;;2.38;2.10;;;25.80;99.90;;;;;;5071535;28;20493;-60
2022/07/29 09:53:50;;;;;;;5.28;2.30;;;25.80;99.90;;;;;;5069241;28;20515;-61
2022/07/29 09:56:18;;;;;;;2.08;1.88;;;25.70;99.90;;;;;;5065338;28;20048;-61
2022/07/29 09:58:45;;;;;;;6.43;2.42;;;25.70;99.90;;;;;;5071926;28;20047;-61
2022/07/29 10:01:12;;;;;;;2.85;1.88;;;25.70;99.90;;;;;;5071365;28;20090;-61
2022/07/29 10:03:52;;;;;;;2.65;2.03;;;25.50;99.90;;;;;;5063987;28;20051;-61
2022/07/29 10:06:19;;;;;;;4.22;2.05;;;25.70;99.90;;;;;;5058951;28;20049;-61
2022/07/29 10:08:46;;;;;;;4.80;1.85;;;26.00;99.90;;;;;;5071758;28;20040;-61
2022/07/29 10:11:15;;;;;;;3.35;2.30;;;26.10;99.90;;;;;;5070561;28;20048;-61
2022/07/29 10:13:44;;;;;;;2.33;1.70;;;26.30;99.90;;;;;;5059576;28;20060;-61
2022/07/29 10:16:12;;;;;;;1.88;1.70;;;26.10;99.90;;;;;;5070391;28;20091;-61
2022/07/29 10:18:43;;;;;;;2.60;1.70;;;26.00;99.90;;;;;;5071532;28;20174;-61
2022/07/29 10:21:10;;;;;;;5.18;1.90;;;26.10;99.90;;;;;;5068797;28;20066;-61
2022/07/29 10:23:58;;;;;;;2.70;2.00;;;26.10;99.90;;;;;;5063175;28;20489;-61
2022/07/29 10:26:27;;;;;;;3.20;1.90;;;26.30;99.90;;;;;;5071462;28;20045;-61
2022/07/29 10:28:55;;;;;;;2.45;1.90;;;26.50;99.90;;;;;;5071437;28;20040;-61
2022/07/29 10:31:39;;;;;;;1.95;1.80;;;26.70;99.90;;;;;;5057008;28;20040;-60
2022/07/29 10:34:36;;;;;;;2.65;2.10;;;26.60;99.90;;;;;;5055075;28;20048;-61
2022/07/29 10:37:30;;;;;;;2.28;1.85;;;26.00;99.90;;;;;;5071488;28;20040;-61
2022/07/29 10:43:32;;;;;;;2.33;1.90;;;26.80;99.90;;;;;;5087640;22;20285;-63
2022/07/29 10:46:00;;;;;;;3.55;2.10;;;27.10;99.90;;;;;;5089880;28;20044;-63
2022/07/29 10:48:27;;;;;;;2.10;1.90;;;27.10;99.90;;;;;;5084444;28;20051;-63
2022/07/29 10:50:55;;;;;;;7.60;2.13;;;27.10;99.90;;;;;;5089427;28;20040;-63
2022/07/29 10:53:23;;;;;;;2.40;1.92;;;27.00;99.90;;;;;;5091358;28;20539;-63
2022/07/29 10:55:52;;;;;;;2.45;1.83;;;27.00;99.90;;;;;;5083362;28;20079;-64
2022/07/29 10:58:23;;;;;;;3.53;2.00;;;27.20;99.90;;;;;;5084853;28;20036;-63
2022/07/29 11:00:52;;;;;;;2.78;1.88;;;27.40;99.90;;;;;;5090921;28;20689;-63
2022/07/29 11:03:37;;;;;;;2.47;1.95;;;27.80;99.90;;;;;;5089333;28;20047;-63
2022/07/29 11:06:04;;;;;;;2.75;1.85;;;28.10;99.90;;;;;;5082873;28;20106;-63
2022/07/29 11:08:34;;;;;;;3.60;1.70;;;28.20;99.90;;;;;;5091165;28;20048;-63
2022/07/29 11:11:19;;;;;;;1.98;1.77;;;28.20;99.90;;;;;;5090913;28;20047;-63
2022/07/29 11:13:53;;;;;;;1.63;1.45;;;28.30;99.60;;;;;;5067503;28;20124;-63
2022/07/29 11:16:25;;;;;;;2.97;1.65;;;28.40;98.50;;;;;;5057760;28;20045;-63
2022/07/29 11:19:10;;;;;;;2.97;1.40;;;28.80;99.10;;;;;;5070270;28;20045;-63
2022/07/29 11:21:47;;;;;;;3.25;1.60;;;29.50;97.80;;;;;;5051136;28;20041;-63
2022/07/29 11:24:30;;;;;;;2.42;1.45;;;29.80;97.50;;;;;;5070542;28;20040;-63
2022/07/29 11:27:17;;;;;;;2.85;1.83;;;29.80;97.80;;;;;;5063544;28;20036;-63
2022/07/29 11:29:57;;;;;;;2.05;1.70;;;29.70;97.50;;;;;;5074220;28;20119;-63
2022/07/29 11:32:36;;;;;;;3.03;1.92;;;29.30;98.10;;;;;;5078155;28;20047;-63
2022/07/29 11:35:23;;;;;;;3.55;1.90;;;28.70;96.20;;;;;;5074777;28;20052;-63
2022/07/29 11:38:27;;;;;;;3.38;1.70;;;28.30;96.20;;;;;;5074499;28;20048;-63
2022/07/29 11:41:24;;;;;;;3.90;1.50;;;28.00;96.90;;;;;;5076870;28;20134;-63
2022/07/29 11:43:53;;;;;;;2.08;1.58;;;27.80;96.90;;;;;;5092341;28;20052;-63
2022/07/29 11:46:47;;;;;;;3.58;1.50;;;27.90;96.70;;;;;;5094580;28;20388;-63
2022/07/29 11:49:22;;;;;;;2.72;1.85;;;28.20;97.50;;;;;;5071518;28;20412;-62
2022/07/29 11:52:00;;;;;;;2.45;1.80;;;28.10;98.00;;;;;;5074706;28;20060;-62
2022/07/29 11:54:34;;;;;;;3.30;1.80;;;28.10;97.20;;;;;;5073920;28;20116;-62
2022/07/29 11:57:21;;;;;;;1.98;1.77;;;28.30;97.80;;;;;;5076576;28;20101;-62
2022/07/29 11:59:48;;;;;;;2.35;1.98;;;28.30;97.00;;;;;;5085808;28;20075;-62
2022/07/29 12:02:16;;;;;;;3.13;1.80;;;28.20;95.60;;;;;;5094034;28;20105;-62
2022/07/29 12:05:03;;;;;;;1.58;1.40;;;28.30;97.30;;;;;;5093278;28;20378;-62
2022/07/29 12:07:38;;;;;;;3.65;1.70;;;28.40;97.50;;;;;;5078356;28;20041;-62
2022/07/29 12:10:07;;;;;;;4.38;2.20;;;28.10;96.50;;;;;;5053525;28;20045;-62
2022/07/29 12:12:52;;;;;;;2.40;2.17;;;27.70;97.40;;;;;;5053875;28;20131;-62
2022/07/29 12:15:20;;;;;;;5.13;1.90;;;27.40;98.50;;;;;;5076116;28;20053;-62
2022/07/29 12:17:48;;;;;;;1.63;1.45;;;27.40;98.00;;;;;;5091569;28;20496;-62
2022/07/29 12:20:26;;;;;;;1.83;1.58;;;27.30;99.40;;;;;;5093533;28;20044;-62
2022/07/29 12:22:55;;;;;;;2.13;1.80;;;27.80;98.10;;;;;;5085069;28;20051;-62
2022/07/29 12:25:24;;;;;;;4.07;1.90;;;28.40;98.60;;;;;;5087570;28;20044;-62
2022/07/29 12:28:02;;;;;;;9.18;2.08;;;28.90;97.10;;;;;;5093861;28;20048;-62
2022/07/29 12:30:45;;;;;;;1.70;1.50;;;29.00;96.90;;;;;;5080350;28;20394;-62
2022/07/29 12:33:24;;;;;;;2.15;1.98;;;28.90;96.30;;;;;;5074012;28;20040;-62
2022/07/29 12:35:54;;;;;;;5.80;1.85;;;28.90;97.10;;;;;;5073412;28;20059;-62
2022/07/29 12:38:36;;;;;;;2.30;2.10;;;29.00;97.20;;;;;;5066788;28;20053;-62
2022/07/29 12:41:03;;;;;;;2.08;1.88;;;29.10;97.60;;;;;;5084129;28;20415;-62
2022/07/29 12:43:31;;;;;;;2.08;1.88;;;28.80;95.80;;;;;;5093419;28;20048;-62
2022/07/29 12:46:10;;;;;;;2.10;1.90;;;28.60;96.60;;;;;;5093434;28;20036;-62
2022/07/29 12:48:39;;;;;;;2.80;1.90;;;28.60;95.70;;;;;;5085333;28;20045;-62
2022/07/29 12:51:08;;;;;;;2.63;1.70;;;28.80;96.40;;;;;;5076582;28;20089;-62
2022/07/29 12:53:36;;;;;;;2.45;1.90;;;29.00;95.40;;;;;;5093364;28;20059;-62
2022/07/29 12:56:04;;;;;;;4.60;1.90;;;29.10;96.30;;;;;;5091982;28;20048;-62
2022/07/29 12:58:51;;;;;;;6.32;2.13;;;29.20;95.40;;;;;;5083203;28;20113;-62
2022/07/29 13:01:19;;;;;;;2.38;2.03;;;29.00;95.10;;;;;;5092759;28;20047;-62
2022/07/29 13:03:46;;;;;;;2.63;2.20;;;28.60;96.20;;;;;;5093195;28;20115;-62
2022/07/29 13:06:32;;;;;;;5.38;2.35;;;28.70;95.80;;;;;;5088129;28;20043;-62
2022/07/29 13:09:03;;;;;;;2.97;2.17;;;28.90;96.00;;;;;;5084450;28;20047;-62
2022/07/29 13:11:51;;;;;;;2.42;2.22;;;29.00;96.60;;;;;;5092454;28;20051;-62
2022/07/29 13:14:50;;;;;;;3.67;1.90;;;29.10;97.40;;;;;;5085314;28;20028;-62
2022/07/29 13:17:27;;;;;;;3.55;2.53;;;29.10;96.20;;;;;;5078129;28;20042;-62
2022/07/29 13:20:08;;;;;;;3.55;2.22;;;28.90;96.50;;;;;;5092531;28;20443;-62